Time;durP1;ratioP1;P1;durP2;ratioP2;P2;SDS_P1;SDS_P2;PMS_P1;PMS_P2;Temp;Humidity;BMP_temperature;BMP_pressure;BME280_temperature;BME280_humidity;BME280_pressure;Samples;Min_cycle;Max_cycle;Signal;HPM_P1;HPM_P2
2022/12/05 00:00:59;;;;;;;41.95;18.77;;;;;;;1.35;100.00;101377.53;4946962;28;20054;-76
2022/12/05 00:03:25;;;;;;;51.53;21.02;;;;;;;1.41;100.00;101378.13;4951770;28;20023;-76
2022/12/05 00:05:50;;;;;;;44.90;20.13;;;;;;;1.39;100.00;101380.75;4950820;28;20660;-76
2022/12/05 00:08:16;;;;;;;48.25;22.52;;;;;;;1.41;100.00;101385.78;4945496;28;20051;-76
2022/12/05 00:10:42;;;;;;;50.47;20.85;;;;;;;1.39;100.00;101383.31;4939396;28;20653;-75
2022/12/05 00:13:07;;;;;;;53.17;21.38;;;;;;;1.40;100.00;101379.84;4946477;28;20031;-76
2022/12/05 00:15:38;;;;;;;55.65;23.50;;;;;;;1.40;100.00;101386.72;4941189;28;20048;-76
2022/12/05 00:18:04;;;;;;;51.03;21.20;;;;;;;1.44;100.00;101390.75;4940486;28;20082;-77
2022/12/05 00:20:30;;;;;;;56.28;23.15;;;;;;;1.48;100.00;101394.78;4954385;28;20043;-75
2022/12/05 00:22:55;;;;;;;50.47;22.00;;;;;;;1.42;100.00;101395.13;4953539;28;20043;-76
2022/12/05 00:25:21;;;;;;;54.70;23.00;;;;;;;1.42;100.00;101390.00;4942543;28;20102;-76
2022/12/05 00:27:46;;;;;;;57.53;23.92;;;;;;;1.51;100.00;101392.88;4941916;28;20051;-76
2022/12/05 00:30:12;;;;;;;60.95;24.10;;;;;;;1.48;100.00;101387.94;4947306;28;20027;-75
2022/12/05 00:32:37;;;;;;;61.58;25.60;;;;;;;1.43;100.00;101394.19;4961013;28;20134;-75
2022/12/05 00:35:03;;;;;;;64.50;24.35;;;;;;;1.41;100.00;101398.56;4961946;28;20038;-75
2022/12/05 00:37:28;;;;;;;64.00;23.55;;;;;;;1.39;100.00;101390.97;4947559;28;20043;-76
2022/12/05 00:39:54;;;;;;;55.90;22.02;;;;;;;1.40;100.00;101386.72;4943142;28;20448;-75
2022/12/05 00:42:19;;;;;;;65.20;24.52;;;;;;;1.43;100.00;101394.19;4943808;28;20043;-75
2022/12/05 00:44:45;;;;;;;54.92;24.23;;;;;;;1.39;100.00;101390.97;4955378;28;20042;-76
2022/12/05 00:47:10;;;;;;;62.67;25.20;;;;;;;1.46;100.00;101386.38;4954885;28;20039;-75
2022/12/05 00:49:36;;;;;;;53.55;23.13;;;;;;;1.39;100.00;101377.38;4946336;28;20906;-76
2022/12/05 00:52:01;;;;;;;64.95;23.75;;;;;;;1.40;100.00;101379.84;4958773;28;20059;-76
2022/12/05 00:54:26;;;;;;;56.85;23.48;;;;;;;1.42;100.00;101377.22;4959821;28;20405;-76
2022/12/05 00:56:55;;;;;;;56.80;23.30;;;;;;;1.44;100.00;101377.97;4939834;28;20047;-76
2022/12/05 00:59:21;;;;;;;61.42;23.17;;;;;;;1.58;100.00;101378.03;4948587;28;20049;-75
2022/12/05 01:01:47;;;;;;;57.33;24.50;;;;;;;1.51;100.00;101381.84;4946058;28;20043;-76
2022/12/05 01:04:18;;;;;;;63.90;23.67;;;;;;;1.45;100.00;101387.25;4943758;28;20063;-76
2022/12/05 01:06:44;;;;;;;64.32;24.83;;;;;;;1.48;100.00;101379.44;4948424;28;20416;-76
2022/12/05 01:09:13;;;;;;;62.42;23.55;;;;;;;1.51;100.00;101385.22;4947816;28;20027;-75
2022/12/05 01:11:38;;;;;;;55.72;23.13;;;;;;;1.44;100.00;101381.34;4942955;28;20381;-76
2022/12/05 01:14:04;;;;;;;61.42;23.58;;;;;;;1.53;100.00;101382.59;4945864;28;20059;-76
2022/12/05 01:16:34;;;;;;;63.08;24.73;;;;;;;1.48;100.00;101385.38;4941932;28;20107;-75
2022/12/05 01:19:02;;;;;;;65.47;25.08;;;;;;;1.47;100.00;101378.63;4945029;28;20130;-76
2022/12/05 01:21:28;;;;;;;62.88;24.38;;;;;;;1.46;100.00;101378.72;4947343;28;20243;-75
2022/12/05 01:23:54;;;;;;;59.95;23.52;;;;;;;1.49;100.00;101381.09;4941532;28;20053;-76
2022/12/05 01:26:20;;;;;;;62.33;24.60;;;;;;;1.48;100.00;101382.00;4945548;28;20408;-75
2022/12/05 01:28:47;;;;;;;63.67;23.13;;;;;;;1.59;100.00;101387.34;4940039;28;20459;-75
2022/12/05 01:31:24;;;;;;;57.83;22.77;;;;;;;1.47;100.00;101388.84;4947220;28;20101;-75
2022/12/05 01:33:50;;;;;;;65.53;26.00;;;;;;;1.46;100.00;101388.94;4960685;28;20071;-76
2022/12/05 01:36:16;;;;;;;62.78;25.20;;;;;;;1.42;100.00;101390.81;4945408;28;20146;-76
2022/12/05 01:38:42;;;;;;;57.47;22.25;;;;;;;1.47;100.00;101390.56;4947118;28;20039;-76
2022/12/05 01:41:11;;;;;;;56.20;24.08;;;;;;;1.44;100.00;101389.00;4949064;28;20054;-75
2022/12/05 01:43:52;;;;;;;60.00;24.52;;;;;;;1.51;100.00;101392.06;4941843;28;20126;-76
2022/12/05 01:46:18;;;;;;;59.55;24.17;;;;;;;1.48;100.00;101399.88;4936103;28;20134;-75
2022/12/05 01:48:44;;;;;;;63.83;23.60;;;;;;;1.47;100.00;101400.78;4942262;28;20034;-76
2022/12/05 01:51:09;;;;;;;63.17;23.98;;;;;;;1.46;100.00;101404.25;4941489;28;20042;-76
2022/12/05 01:53:35;;;;;;;62.05;22.77;;;;;;;1.46;100.00;101405.09;4944287;28;20046;-75
2022/12/05 01:56:01;;;;;;;59.13;23.83;;;;;;;1.47;100.00;101411.00;4951460;28;20046;-75
2022/12/05 01:58:31;;;;;;;65.80;23.45;;;;;;;1.47;100.00;101411.84;4919921;29;20578;-75
2022/12/05 02:00:57;;;;;;;58.70;24.17;;;;;;;1.48;100.00;101407.56;4932594;28;20052;-75
2022/12/05 02:03:22;;;;;;;63.38;24.50;;;;;;;1.45;100.00;101407.72;4946693;28;20030;-75
2022/12/05 02:05:51;;;;;;;63.17;25.17;;;;;;;1.51;100.00;101407.41;4943651;28;20054;-76
2022/12/05 02:08:17;;;;;;;62.45;24.63;;;;;;;1.49;100.00;101401.56;4947422;28;20035;-76
2022/12/05 02:10:46;;;;;;;68.38;25.42;;;;;;;1.50;100.00;101408.31;4941227;28;20058;-75
2022/12/05 02:13:47;;;;;;;57.65;25.13;;;;;;;1.57;100.00;101412.19;4939750;28;20078;-75
2022/12/05 02:16:28;;;;;;;61.65;24.42;;;;;;;1.56;100.00;101415.63;4941615;28;20054;-75
2022/12/05 02:19:21;;;;;;;61.20;23.52;;;;;;;1.53;100.00;101408.16;4941883;28;20381;-76
2022/12/05 02:21:58;;;;;;;61.10;25.92;;;;;;;1.52;100.00;101402.19;4943457;28;20117;-76
2022/12/05 02:24:55;;;;;;;62.30;24.17;;;;;;;1.53;100.00;101403.03;4945150;28;20050;-75
2022/12/05 02:27:55;;;;;;;61.65;25.58;;;;;;;1.53;100.00;101408.16;4943158;28;20456;-76
2022/12/05 02:30:22;;;;;;;61.35;25.73;;;;;;;1.56;100.00;101415.63;4945544;28;20830;-76
2022/12/05 02:33:16;;;;;;;56.67;24.58;;;;;;;1.53;100.00;101408.16;4947243;28;20044;-76
2022/12/05 02:35:53;;;;;;;;;;;;;;;1.52;100.00;101406.47;4944391;28;20520;-75
2022/12/05 02:38:49;;;;;;;62.00;25.48;;;;;;;1.51;100.00;101400.56;4943688;28;19921;-75
2022/12/05 02:41:32;;;;;;;59.33;25.63;;;;;;;1.58;100.00;101407.88;4932415;28;20518;-75
2022/12/05 02:44:04;;;;;;;;;;;;;;;1.53;100.00;101403.03;4940096;28;20767;-76
2022/12/05 02:46:32;;;;;;;60.13;25.13;;;;;;;1.53;100.00;101408.16;4941778;28;19929;-75
2022/12/05 02:49:07;;;;;;;60.90;24.90;;;;;;;1.59;100.00;101409.56;4944881;28;20035;-76
2022/12/05 02:51:37;;;;;;;67.13;27.05;;;;;;;1.54;100.00;101405.50;4927457;28;20485;-76
2022/12/05 02:54:06;;;;;;;65.78;26.33;;;;;;;1.52;100.00;101403.94;4945180;28;20391;-76
2022/12/05 02:56:34;;;;;;;61.58;25.00;;;;;;;1.53;100.00;101397.94;4944069;28;20098;-75
2022/12/05 02:59:00;;;;;;;64.53;24.58;;;;;;;1.56;100.00;101405.41;4943362;28;20035;-75
2022/12/05 03:01:28;;;;;;;59.53;24.65;;;;;;;1.53;100.00;101406.41;4945501;28;20126;-76
2022/12/05 03:03:56;;;;;;;56.53;24.80;;;;;;;1.53;100.00;101408.16;4940760;28;20487;-76
2022/12/05 03:06:28;;;;;;;63.03;24.35;;;;;;;1.56;100.00;101410.53;4943186;28;20389;-75
2022/12/05 03:09:00;;;;;;;56.63;24.15;;;;;;;1.54;100.00;101412.34;4949205;28;20480;-76
2022/12/05 03:11:33;;;;;;;62.40;24.85;;;;;;;1.58;100.00;101406.16;4953158;28;20061;-75
2022/12/05 03:14:03;;;;;;;64.07;22.90;;;;;;;1.62;100.00;101414.47;4926411;29;20028;-76
2022/12/05 03:16:35;;;;;;;56.53;23.70;;;;;;;1.59;100.00;101414.66;4938170;28;20130;-75
2022/12/05 03:19:11;;;;;;;48.50;21.77;;;;;;;1.59;100.00;101407.81;4948624;28;20065;-76
2022/12/05 03:21:44;;;;;;;55.72;24.20;;;;;;;1.62;100.00;101409.38;4949856;28;21078;-76
2022/12/05 03:24:13;;;;;;;58.08;24.38;;;;;;;1.58;100.00;101415.56;4944719;28;20059;-76
2022/12/05 03:26:57;;;;;;;52.90;23.17;;;;;;;1.56;100.00;101420.75;4948368;28;20051;-76
2022/12/05 03:29:38;;;;;;;56.13;24.60;;;;;;;1.57;100.00;101424.16;4940793;28;20864;-76
2022/12/05 03:32:11;;;;;;;58.00;25.75;;;;;;;1.56;100.00;101418.19;4947131;28;20035;-76
2022/12/05 03:35:00;;;;;;;53.97;23.15;;;;;;;1.60;100.00;101416.28;4941354;28;20123;-76
2022/12/05 03:37:52;;;;;;;53.08;24.60;;;;;;;1.61;100.00;101416.22;4956591;28;20519;-76
2022/12/05 03:40:26;;;;;;;61.55;24.75;;;;;;;1.60;100.00;101418.84;4946594;28;20035;-75
2022/12/05 03:43:40;;;;;;;59.70;23.45;;;;;;;1.62;100.00;101411.91;4950474;28;20114;-75
2022/12/05 03:46:23;;;;;;;57.72;24.40;;;;;;;1.62;100.00;101417.03;4962673;28;20090;-75
2022/12/05 03:48:48;;;;;;;53.67;23.13;;;;;;;1.58;100.00;101418.13;4960452;28;20046;-75
2022/12/05 03:51:16;;;;;;;58.20;25.42;;;;;;;1.59;100.00;101418.03;4945184;28;20122;-76
2022/12/05 03:54:07;;;;;;;60.40;24.77;;;;;;;1.58;100.00;101415.56;4943626;28;20572;-76
2022/12/05 03:56:46;;;;;;;57.38;26.38;;;;;;;1.59;100.00;101417.22;4941166;28;20535;-76
2022/12/05 03:59:25;;;;;;;55.67;24.45;;;;;;;1.63;100.00;101419.50;4942885;28;20046;-76
2022/12/05 04:01:54;;;;;;;59.20;24.45;;;;;;;1.62;100.00;101414.47;4943572;28;20047;-76
2022/12/05 04:04:27;;;;;;;57.53;24.77;;;;;;;1.62;100.00;101422.16;4958756;28;20431;-76
2022/12/05 04:06:55;;;;;;;57.38;23.95;;;;;;;1.61;100.00;101423.88;4943141;28;20091;-76
2022/12/05 04:09:27;;;;;;;56.75;24.15;;;;;;;1.64;100.00;101418.63;4943546;28;20239;-75
2022/12/05 04:11:58;;;;;;;57.57;23.83;;;;;;;1.65;100.00;101425.38;4943624;28;20059;-76
2022/12/05 04:14:33;;;;;;;59.13;24.48;;;;;;;1.62;100.00;101425.56;4946935;28;21708;-75
2022/12/05 04:17:04;;;;;;;54.65;24.70;;;;;;;1.66;100.00;101427.03;4944951;28;20036;-76
2022/12/05 04:22:31;;;;;;;60.97;25.80;;;;;;;1.62;100.00;101432.38;4941139;28;20047;-76
2022/12/05 04:27:58;;;;;;;59.70;23.95;;;;;;;1.66;100.00;101426.22;4944619;28;20043;-76
2022/12/05 04:30:31;;;;;;;61.75;27.15;;;;;;;1.72;100.00;101431.00;4950987;28;20047;-76
2022/12/05 04:33:25;;;;;;;56.63;25.17;;;;;;;1.64;100.00;101426.28;4945854;28;20040;-76
2022/12/05 04:35:57;;;;;;;56.03;24.70;;;;;;;1.62;100.00;101429.81;4960551;28;20059;-75
2022/12/05 04:38:28;;;;;;;60.05;24.63;;;;;;;1.59;100.00;101430.00;4946598;28;20050;-76
2022/12/05 04:41:01;;;;;;;60.53;24.73;;;;;;;1.63;100.00;101432.28;4940245;28;20055;-76
2022/12/05 04:43:31;;;;;;;57.97;25.17;;;;;;;1.63;100.00;101434.03;4928003;29;20035;-76
2022/12/05 04:45:59;;;;;;;64.50;25.30;;;;;;;1.63;100.00;101427.19;4954417;28;20043;-76
2022/12/05 04:48:26;;;;;;;56.97;24.15;;;;;;;1.59;100.00;101432.56;4942683;28;20035;-76
2022/12/05 04:50:54;;;;;;;60.03;26.38;;;;;;;1.59;100.00;101433.38;4944561;28;20047;-76
2022/12/05 04:53:24;;;;;;;60.17;25.15;;;;;;;1.58;100.00;101439.38;4944143;28;20480;-76
2022/12/05 04:55:54;;;;;;;62.00;24.52;;;;;;;1.61;100.00;101443.53;4941608;28;20039;-76
2022/12/05 04:58:23;;;;;;;58.20;25.58;;;;;;;1.59;100.00;101443.59;4962841;28;20114;-76
2022/12/05 05:01:20;;;;;;;58.10;25.13;;;;;;;1.61;100.00;101433.28;4945562;28;20118;-76
2022/12/05 05:03:55;;;;;;;62.85;27.48;;;;;;;1.58;100.00;101436.81;4944165;28;20038;-77
2022/12/05 05:06:20;;;;;;;59.45;24.73;;;;;;;1.57;100.00;101439.50;4931338;28;20083;-77
2022/12/05 05:08:49;;;;;;;57.90;25.48;;;;;;;1.58;100.00;101447.06;4945856;28;20032;-77
2022/12/05 05:11:28;;;;;;;62.25;24.75;;;;;;;1.57;100.00;101445.41;4943597;28;20058;-77
2022/12/05 05:13:54;;;;;;;54.50;23.15;;;;;;;1.60;100.00;101446.97;4948189;28;20031;-78
2022/12/05 05:16:41;;;;;;;59.10;22.60;;;;;;;1.63;100.00;101449.38;4956021;28;20040;-78
2022/12/05 05:19:09;;;;;;;55.70;21.75;;;;;;;1.57;100.00;101462.50;4922934;29;20040;-78
2022/12/05 05:21:39;;;;;;;50.20;23.23;;;;;;;1.51;100.00;101455.97;4922891;28;20062;-78
2022/12/05 05:24:06;;;;;;;48.53;21.83;;;;;;;1.52;100.00;101458.44;4949675;28;20051;-77
2022/12/05 05:26:37;;;;;;;52.38;23.55;;;;;;;1.49;100.00;101452.69;4952746;28;20579;-79
2022/12/05 05:29:03;;;;;;;53.33;23.10;;;;;;;1.56;100.00;101456.53;4956724;28;20174;-78
2022/12/05 05:31:29;;;;;;;52.78;21.48;;;;;;;1.57;100.00;101450.53;4947355;28;20075;-77
2022/12/05 05:33:55;;;;;;;47.47;21.75;;;;;;;1.47;100.00;101460.44;4953073;28;20039;-79
2022/12/05 05:36:24;;;;;;;48.53;21.83;;;;;;;1.43;100.00;101461.50;4948534;28;20066;-77
2022/12/05 05:38:53;;;;;;;54.17;23.55;;;;;;;1.42;100.00;101451.34;4963178;28;20031;-78
2022/12/05 05:41:20;;;;;;;47.35;21.17;;;;;;;1.44;100.00;101463.13;4952944;28;20057;-78
2022/12/05 05:43:46;;;;;;;49.58;22.45;;;;;;;1.43;100.00;101461.50;4949061;28;20040;-78
2022/12/05 05:46:13;;;;;;;48.97;21.67;;;;;;;1.47;100.00;101459.56;4950273;28;20049;-78
2022/12/05 05:48:39;;;;;;;54.85;22.77;;;;;;;1.45;100.00;101462.25;4951831;28;20042;-78
2022/12/05 05:51:07;;;;;;;50.17;22.45;;;;;;;1.45;100.00;101467.34;4949103;28;20416;-78
2022/12/05 05:53:33;;;;;;;51.95;22.02;;;;;;;1.46;100.00;101463.06;4951871;28;20756;-78
2022/12/05 05:56:10;;;;;;;54.22;23.10;;;;;;;1.52;100.00;101466.09;4945337;28;20055;-77
2022/12/05 05:58:36;;;;;;;51.20;23.58;;;;;;;1.46;100.00;101463.06;4942626;28;20039;-77
2022/12/05 06:01:10;;;;;;;51.30;21.90;;;;;;;1.46;100.00;101470.72;4961192;28;20094;-78
2022/12/05 06:03:37;;;;;;;56.05;23.50;;;;;;;1.47;100.00;101459.56;4961836;28;20035;-77
2022/12/05 06:06:06;;;;;;;53.75;22.20;;;;;;;1.45;100.00;101475.03;4948783;28;20050;-77
2022/12/05 06:08:33;;;;;;;48.58;23.17;;;;;;;1.47;100.00;101474.91;4946156;28;20031;-77
2022/12/05 06:11:03;;;;;;;54.15;24.25;;;;;;;1.46;100.00;101478.38;4944006;28;20047;-77
2022/12/05 06:13:28;;;;;;;57.20;22.95;;;;;;;1.50;100.00;101474.75;4937635;28;20076;-77
2022/12/05 06:15:54;;;;;;;52.92;23.02;;;;;;;1.44;100.00;101473.34;4963930;28;20043;-78
2022/12/05 06:18:19;;;;;;;51.33;20.60;;;;;;;1.43;100.00;101474.28;4946957;28;20507;-77
2022/12/05 06:20:52;;;;;;;45.38;21.38;;;;;;;1.43;100.00;101475.97;4939814;28;20686;-77
2022/12/05 06:23:18;;;;;;;59.92;22.80;;;;;;;1.42;100.00;101474.34;4931786;28;20066;-77
2022/12/05 06:25:48;;;;;;;57.30;23.05;;;;;;;1.45;100.00;101476.72;4928887;28;20043;-77
2022/12/05 06:28:14;;;;;;;51.13;22.50;;;;;;;1.43;100.00;101483.66;4947362;28;20043;-77
2022/12/05 06:30:39;;;;;;;52.90;21.23;;;;;;;1.44;100.00;101482.75;4942664;28;20051;-77
2022/12/05 06:33:04;;;;;;;49.40;22.05;;;;;;;1.44;100.00;101478.47;4929265;28;20094;-77
2022/12/05 06:35:30;;;;;;;52.17;22.05;;;;;;;1.44;100.00;101481.03;4945804;28;20075;-77
2022/12/05 06:37:55;;;;;;;57.08;23.10;;;;;;;1.45;100.00;101490.34;4944278;28;20035;-77
2022/12/05 06:40:21;;;;;;;52.88;23.98;;;;;;;1.45;100.00;101484.41;4940388;28;23597;-77
2022/12/05 06:42:46;;;;;;;44.85;21.77;;;;;;;1.44;100.00;101480.19;4948040;28;20382;-77
2022/12/05 06:45:12;;;;;;;52.42;22.52;;;;;;;1.46;100.00;101494.53;4946096;28;20397;-77
2022/12/05 06:47:37;;;;;;;51.72;21.95;;;;;;;1.47;100.00;101495.38;4963169;28;20047;-77
2022/12/05 06:50:03;;;;;;;51.45;22.60;;;;;;;1.46;100.00;101492.00;4949421;28;20034;-77
2022/12/05 06:52:29;;;;;;;50.47;21.30;;;;;;;1.47;100.00;101493.66;4950868;28;20690;-78
2022/12/05 06:54:54;;;;;;;55.10;23.13;;;;;;;1.50;100.00;101497.78;4945622;28;20059;-77
2022/12/05 06:57:20;;;;;;;58.00;23.52;;;;;;;1.49;100.00;101501.25;4948164;28;20457;-78
2022/12/05 06:59:45;;;;;;;52.58;22.85;;;;;;;1.51;100.00;101502.81;4950523;28;20043;-79
2022/12/05 07:02:11;;;;;;;56.70;22.52;;;;;;;1.61;100.00;101507.44;4950973;28;20690;-78
2022/12/05 07:04:37;;;;;;;57.47;23.35;;;;;;;1.54;100.00;101507.78;4952418;28;20035;-78
2022/12/05 07:07:03;;;;;;;50.40;21.65;;;;;;;1.55;100.00;101513.69;4949835;28;20047;-78
2022/12/05 07:10:14;;;;;;;52.75;22.27;;;;;;;1.49;100.00;101514.03;4950294;28;20027;-78
2022/12/05 07:12:17;;;;;;;51.67;21.48;;;;;;;1.54;100.00;101517.16;4944071;28;20523;-78
2022/12/05 07:14:43;;;;;;;50.72;21.83;;;;;;;1.43;100.00;101525.41;4949374;28;20034;-79
2022/12/05 07:17:08;;;;;;;50.55;21.33;;;;;;;1.40;100.00;101519.63;4949896;28;20047;-79
2022/12/05 07:19:34;;;;;;;48.33;21.30;;;;;;;1.40;100.00;101522.16;4949481;28;20122;-78
2022/12/05 07:21:59;;;;;;;46.10;19.75;;;;;;;1.40;100.00;101519.63;4961177;28;20054;-78
2022/12/05 07:24:25;;;;;;;52.63;21.95;;;;;;;1.36;100.00;101522.31;4944953;28;20676;-78
2022/12/05 07:26:51;;;;;;;54.13;21.88;;;;;;;1.36;100.00;101527.44;4946868;28;20051;-77
2022/12/05 07:29:16;;;;;;;45.33;21.75;;;;;;;1.36;100.00;101534.28;4950926;28;20472;-78
2022/12/05 07:31:42;;;;;;;47.53;21.67;;;;;;;1.33;100.00;101540.34;4952706;28;20047;-77
2022/12/05 07:34:07;;;;;;;53.25;21.98;;;;;;;1.34;100.00;101539.47;4943089;28;20114;-77
2022/12/05 07:36:34;;;;;;;56.88;21.40;;;;;;;1.38;100.00;101537.56;4953070;28;20413;-77
2022/12/05 07:39:00;;;;;;;50.58;21.55;;;;;;;1.39;100.00;101540.94;4947338;28;20035;-77
2022/12/05 07:41:28;;;;;;;55.42;21.80;;;;;;;1.35;100.00;101548.75;4947145;28;20054;-78
2022/12/05 07:43:55;;;;;;;50.63;21.48;;;;;;;1.35;100.00;101533.44;4965221;28;20027;-78
2022/12/05 07:46:21;;;;;;;51.10;21.00;;;;;;;1.35;100.00;101550.50;4962909;28;20043;-78
2022/12/05 07:48:47;;;;;;;78.18;31.52;;;;;;;1.38;100.00;101552.09;4946807;28;20043;-78
2022/12/05 07:51:13;;;;;;;93.35;36.40;;;;;;;1.35;100.00;101556.44;4944627;28;20137;-78
2022/12/05 07:53:41;;;;;;;51.38;23.63;;;;;;;1.32;100.00;101545.56;4950261;28;20054;-78
2022/12/05 07:56:08;;;;;;;46.10;21.73;;;;;;;1.32;100.00;101550.69;4942165;28;20122;-78
2022/12/05 07:58:34;;;;;;;45.55;20.30;;;;;;;1.32;100.00;101553.22;4948280;28;20037;-78
2022/12/05 08:01:08;;;;;;;45.83;20.52;;;;;;;1.30;100.00;101555.00;4949623;28;20110;-78
2022/12/05 08:03:36;;;;;;;50.85;22.13;;;;;;;1.32;100.00;101558.34;4960289;28;20488;-79
2022/12/05 08:06:07;;;;;;;54.60;22.73;;;;;;;1.33;100.00;101560.78;4947338;28;20066;-77
2022/12/05 08:08:33;;;;;;;44.17;21.08;;;;;;;1.31;100.00;101559.22;4945140;28;20500;-77
2022/12/05 08:11:04;;;;;;;48.03;22.27;;;;;;;1.26;100.00;101559.47;4965065;28;20053;-78
2022/12/05 08:13:30;;;;;;;49.28;21.90;;;;;;;1.26;100.00;101559.47;4951744;28;20031;-78
2022/12/05 08:16:00;;;;;;;46.72;21.17;;;;;;;1.24;100.00;101563.00;4952169;28;20153;-79
2022/12/05 08:18:26;;;;;;;47.75;21.65;;;;;;;1.28;100.00;101567.88;4951648;28;20165;-79
2022/12/05 08:20:51;;;;;;;47.10;21.05;;;;;;;1.25;100.00;101569.78;4954247;28;20401;-78
2022/12/05 08:23:17;;;;;;;45.40;21.88;;;;;;;1.26;100.00;101574.81;4967582;28;20048;-78
2022/12/05 08:25:42;;;;;;;46.10;21.73;;;;;;;1.29;100.00;101568.72;4946662;28;20067;-78
2022/12/05 08:28:07;;;;;;;46.72;20.27;;;;;;;1.26;100.00;101577.38;4964845;28;20031;-78
2022/12/05 08:30:33;;;;;;;48.75;21.48;;;;;;;1.27;100.00;101589.22;4948893;28;20404;-78
2022/12/05 08:32:59;;;;;;;43.47;20.48;;;;;;;1.28;100.00;101585.78;4951834;28;20260;-77
2022/12/05 08:35:24;;;;;;;46.78;20.88;;;;;;;1.29;100.00;101591.72;4945594;28;20551;-78
2022/12/05 08:37:50;;;;;;;47.55;20.80;;;;;;;1.28;100.00;101590.88;4949452;28;20578;-77
2022/12/05 08:40:16;;;;;;;44.97;19.63;;;;;;;1.29;100.00;101595.09;4940511;28;20715;-78
2022/12/05 08:42:41;;;;;;;49.92;20.15;;;;;;;1.25;100.00;101603.00;4945706;28;20045;-78
2022/12/05 08:45:07;;;;;;;48.00;20.10;;;;;;;1.25;100.00;101600.44;4952297;28;20034;-78
2022/12/05 08:47:33;;;;;;;43.75;20.45;;;;;;;1.25;100.00;101606.38;4949459;28;20054;-78
2022/12/05 08:49:58;;;;;;;46.28;21.13;;;;;;;1.24;100.00;101601.31;4945212;28;20028;-77
2022/12/05 08:52:24;;;;;;;43.83;20.35;;;;;;;1.25;100.00;101603.81;4949932;28;20043;-77
2022/12/05 08:54:49;;;;;;;47.72;23.20;;;;;;;1.26;100.00;101604.63;4948303;28;20043;-78
2022/12/05 08:57:15;;;;;;;50.78;21.55;;;;;;;1.31;100.00;101600.13;4946890;28;20138;-78
2022/12/05 08:59:40;;;;;;;42.60;18.95;;;;;;;1.25;100.00;101606.38;4962364;28;20116;-77
2022/12/05 09:02:07;;;;;;;45.42;20.33;;;;;;;1.26;100.00;101608.03;4932411;28;20886;-78
2022/12/05 09:04:32;;;;;;;44.80;20.25;;;;;;;1.26;100.00;101604.63;4943891;28;20031;-77
2022/12/05 09:07:01;;;;;;;44.35;20.42;;;;;;;1.22;100.00;101615.91;4942401;28;20047;-78
2022/12/05 09:09:27;;;;;;;47.40;20.65;;;;;;;1.25;100.00;101608.91;4944768;28;20040;-78
2022/12/05 09:11:52;;;;;;;46.70;19.60;;;;;;;1.23;100.00;101610.72;4957397;28;20047;-79
2022/12/05 09:14:18;;;;;;;39.22;20.00;;;;;;;1.17;100.00;101606.75;4941902;28;20027;-78
2022/12/05 09:16:45;;;;;;;38.65;18.23;;;;;;;1.20;100.00;101615.16;4937062;28;20086;-78
2022/12/05 09:19:14;;;;;;;41.17;19.30;;;;;;;1.19;100.00;101611.78;4949895;28;20043;-78
2022/12/05 09:21:40;;;;;;;43.45;19.55;;;;;;;1.22;100.00;101621.84;4942596;28;20036;-78
2022/12/05 09:24:06;;;;;;;39.45;18.60;;;;;;;1.23;100.00;101623.50;4947142;28;20024;-77
2022/12/05 09:26:31;;;;;;;39.58;18.40;;;;;;;1.25;100.00;101624.25;4945516;28;20054;-78
2022/12/05 09:28:57;;;;;;;38.08;19.05;;;;;;;1.25;100.00;101623.44;4948082;28;20050;-77
2022/12/05 09:31:24;;;;;;;39.97;19.58;;;;;;;1.17;100.00;101624.63;4944536;28;20126;-77
2022/12/05 09:33:50;;;;;;;44.92;18.75;;;;;;;1.16;100.00;101627.25;4947261;28;20054;-78
2022/12/05 09:36:22;;;;;;;41.88;19.00;;;;;;;1.17;100.00;101626.38;4950342;28;20452;-78
2022/12/05 09:38:48;;;;;;;40.05;17.77;;;;;;;1.24;100.00;101626.88;4961892;28;20058;-78
2022/12/05 09:42:03;;;;;;;43.55;18.75;;;;;;;1.20;100.00;101618.53;4949368;28;20062;-78
2022/12/05 09:44:33;;;;;;;39.65;18.02;;;;;;;1.17;100.00;101624.63;4958188;28;20134;-78
2022/12/05 09:47:12;;;;;;;36.60;18.10;;;;;;;1.12;100.00;101620.66;4931172;28;20067;-77
2022/12/05 09:49:46;;;;;;;40.95;18.20;;;;;;;1.16;100.00;101617.84;4960162;28;20066;-77
2022/12/05 09:52:27;;;;;;;39.22;18.75;;;;;;;1.24;100.00;101625.13;4962137;28;20109;-78
2022/12/05 09:54:53;;;;;;;38.03;17.88;;;;;;;1.17;100.00;101626.38;4951075;28;20035;-78
2022/12/05 09:57:28;;;;;;;38.67;17.58;;;;;;;1.22;100.00;101632.06;4929603;28;20042;-77
2022/12/05 09:59:53;;;;;;;39.42;18.25;;;;;;;1.22;100.00;101629.50;4964455;28;20028;-78
2022/12/05 10:02:41;;;;;;;33.78;17.15;;;;;;;1.28;100.00;101629.22;4930585;28;20051;-77
2022/12/05 10:05:15;;;;;;;33.33;15.77;;;;;;;1.34;100.00;101628.09;4949808;28;20034;-77
2022/12/05 10:08:12;;;;;;;33.67;17.55;;;;;;;1.36;100.00;101626.28;4945817;28;20054;-77
2022/12/05 10:11:01;;;;;;;34.03;16.88;;;;;;;1.28;100.00;101628.38;4939195;28;20114;-77
2022/12/05 10:14:00;;;;;;;33.42;16.40;;;;;;;1.35;100.00;101622.88;4945011;28;20448;-77
2022/12/05 10:16:32;;;;;;;28.85;15.50;;;;;;;1.40;100.00;101619.28;4954543;28;20133;-77
2022/12/05 10:19:04;;;;;;;33.10;17.70;;;;;;;1.46;100.00;101618.97;4949095;28;20629;-77
2022/12/05 10:21:33;;;;;;;36.22;17.33;;;;;;;1.50;100.00;101620.47;4941821;28;20046;-78
2022/12/05 10:24:01;;;;;;;40.25;18.90;;;;;;;1.52;100.00;101632.25;4939472;28;20035;-77
2022/12/05 10:26:34;;;;;;;38.17;18.75;;;;;;;1.59;100.00;101626.88;4964665;28;20043;-77
2022/12/05 10:29:38;;;;;;;38.65;18.60;;;;;;;1.53;100.00;101630.56;4950935;28;20055;-77
2022/12/05 10:32:27;;;;;;;41.58;20.10;;;;;;;1.54;100.00;101627.06;4949486;28;20138;-78
2022/12/05 10:34:58;;;;;;;41.67;19.40;;;;;;;1.65;100.00;101624.00;4945227;28;20031;-78
2022/12/05 10:37:24;;;;;;;34.78;18.80;;;;;;;1.69;100.00;101628.84;4954220;28;20040;-77
2022/12/05 10:39:51;;;;;;;34.20;17.85;;;;;;;1.56;100.00;101630.38;4953313;28;20435;-78
2022/12/05 10:42:24;;;;;;;36.38;18.35;;;;;;;1.55;100.00;101615.97;4948188;28;20093;-78
2022/12/05 10:44:56;;;;;;;39.63;19.35;;;;;;;1.64;100.00;101628.28;4947252;28;20035;-78
2022/12/05 10:47:22;;;;;;;37.75;18.23;;;;;;;1.54;100.00;101621.97;4960163;28;20028;-78
2022/12/05 10:49:48;;;;;;;35.88;18.92;;;;;;;1.61;100.00;101630.97;4943732;28;20600;-78
2022/12/05 10:52:15;;;;;;;32.45;17.40;;;;;;;1.63;100.00;101633.47;4945416;28;20051;-78
2022/12/05 10:54:46;;;;;;;35.03;17.80;;;;;;;1.58;100.00;101636.25;4956272;28;20103;-78
2022/12/05 10:57:26;;;;;;;33.67;19.42;;;;;;;1.47;100.00;101636.81;4945878;28;20031;-78
2022/12/05 10:59:53;;;;;;;42.17;20.85;;;;;;;1.43;100.00;101626.78;4952974;28;20035;-78
2022/12/05 11:02:26;;;;;;;41.95;21.50;;;;;;;1.40;100.00;101632.06;4951010;28;20063;-77
2022/12/05 11:04:53;;;;;;;41.58;20.02;;;;;;;1.46;100.00;101634.31;4952433;28;20043;-78
2022/12/05 11:07:34;;;;;;;35.05;17.52;;;;;;;1.56;100.00;101632.94;4947674;28;20039;-78
2022/12/05 11:10:03;;;;;;;36.95;18.58;;;;;;;1.45;100.00;101630.94;4950094;28;20023;-79
2022/12/05 11:12:32;;;;;;;31.88;17.05;;;;;;;1.46;100.00;101637.69;4948903;28;20512;-79
2022/12/05 11:15:18;;;;;;;31.92;17.02;;;;;;;1.36;100.00;101631.41;4946586;28;20704;-77
2022/12/05 11:17:44;;;;;;;33.03;16.98;;;;;;;1.23;100.00;101628.63;4967968;28;20051;-79
2022/12/05 11:20:18;;;;;;;33.85;16.60;;;;;;;1.35;100.00;101625.44;4948595;28;20175;-77
2022/12/05 11:22:48;;;;;;;34.60;17.75;;;;;;;1.41;100.00;101623.47;4949370;28;20059;-78
2022/12/05 11:25:32;;;;;;;29.52;16.20;;;;;;;1.37;100.00;101625.38;4944269;28;20036;-79
2022/12/05 11:28:18;;;;;;;31.17;16.77;;;;;;;1.34;100.00;101628.91;4938010;28;20484;-79
2022/12/05 11:31:15;;;;;;;33.17;17.23;;;;;;;1.22;100.00;101621.84;4936718;28;20047;-78